createdAt,value
2016-09-27T00:00:35.978Z,94.12
2016-09-27T00:01:35.963Z,93.79
2016-09-27T00:02:35.639Z,94.41
2016-09-27T00:03:35.625Z,93.84
2016-09-27T00:04:35.618Z,93.84
2016-09-27T00:05:35.605Z,93.93
2016-09-27T00:06:35.591Z,94.41
2016-09-27T00:07:35.581Z,93.79
2016-09-27T00:08:35.567Z,94.31
2016-09-27T00:09:35.556Z,94.31
2016-09-27T00:10:35.549Z,94.41
2016-09-27T00:11:35.531Z,94.65
2016-09-27T00:12:35.520Z,94.65
2016-09-27T00:13:35.511Z,94.36
2016-09-27T00:14:35.501Z,94.41
2016-09-27T00:15:35.485Z,95.12
2016-09-27T00:16:35.471Z,95.12
2016-09-27T00:17:35.461Z,95.32
2016-09-27T00:18:35.447Z,95.32
2016-09-27T00:19:35.440Z,94.98
2016-09-27T00:20:35.745Z,94.6
2016-09-27T00:21:35.414Z,94.46
2016-09-27T00:22:35.715Z,94.46
2016-09-27T00:23:35.391Z,94.93
2016-09-27T00:24:35.373Z,94.27
2016-09-27T00:25:35.374Z,94.36
2016-09-27T00:26:35.353Z,94.46
2016-09-27T00:27:35.339Z,93.98
2016-09-27T00:28:35.345Z,94.17
2016-09-27T00:29:35.317Z,94.27
2016-09-27T00:30:35.305Z,93.88
2016-09-27T00:31:35.297Z,94.17
2016-09-27T00:32:35.284Z,94.65
2016-09-27T00:33:35.269Z,94.36
2016-09-27T00:34:35.254Z,94.56
2016-09-27T00:35:35.247Z,94.27
2016-09-27T00:36:35.232Z,94.36
2016-09-27T00:37:35.221Z,94.36
2016-09-27T00:38:35.206Z,94.36
2016-09-27T00:39:35.245Z,94.65
2016-09-27T00:40:35.184Z,95.03
2016-09-27T00:41:35.222Z,94.74
2016-09-27T00:42:35.207Z,94.84
2016-09-27T00:43:35.459Z,94.74
2016-09-27T00:44:35.137Z,94.56
2016-09-27T00:45:35.323Z,94.41
2016-09-27T00:46:35.109Z,94.22
2016-09-27T00:47:35.099Z,95.03
2016-09-27T00:48:35.093Z,94.6
2016-09-27T00:49:35.073Z,94.6
2016-09-27T00:50:35.373Z,94.7
2016-09-27T00:51:35.053Z,95.37
2016-09-27T00:52:35.039Z,94.98
2016-09-27T00:53:35.030Z,95.46
2016-09-27T00:54:35.012Z,95.37
2016-09-27T00:55:34.998Z,95.27
2016-09-27T00:56:34.990Z,94.98
2016-09-27T00:57:34.976Z,94.98
2016-09-27T00:58:34.959Z,95.56
2016-09-27T00:59:34.951Z,95.65
2016-09-27T01:00:34.934Z,96.41
2016-09-27T01:01:34.926Z,96.22
2016-09-27T01:02:34.913Z,96.03
2016-09-27T01:03:34.899Z,95.65
2016-09-27T01:04:34.888Z,96.13
2016-09-27T01:05:34.877Z,95.94
2016-09-27T01:06:35.190Z,96.41
2016-09-27T01:07:35.184Z,95.84
2016-09-27T01:08:34.848Z,96.41
2016-09-27T01:09:34.890Z,96.41
2016-09-27T01:10:34.815Z,96.61
2016-09-27T01:11:34.801Z,96.32
2016-09-27T01:12:34.795Z,96.41
2016-09-27T01:13:34.783Z,96.51
2016-09-27T01:14:34.766Z,96.51
2016-09-27T01:15:34.763Z,96.41
2016-09-27T01:16:34.738Z,96.22
2016-09-27T01:17:34.728Z,96.32
2016-09-27T01:18:34.730Z,96.41
2016-09-27T01:19:35.019Z,96.51
2016-09-27T01:20:34.699Z,96.51
2016-09-27T01:21:34.680Z,96.41
2016-09-27T01:22:34.667Z,96.32
2016-09-27T01:23:34.652Z,96.51
2016-09-27T01:24:34.640Z,96.8
2016-09-27T01:25:34.629Z,97.17
2016-09-27T01:26:34.617Z,96.89
2016-09-27T01:27:34.606Z,97.27
2016-09-27T01:28:34.594Z,97.37
2016-09-27T01:29:34.579Z,97.27
2016-09-27T01:30:34.566Z,97.37
2016-09-27T01:31:34.556Z,97.27
2016-09-27T01:32:34.557Z,97.56
2016-09-27T01:33:34.528Z,97.85
2016-09-27T01:34:34.516Z,97.94
2016-09-27T01:35:34.505Z,97.66
2016-09-27T01:36:34.497Z,97.85
2016-09-27T01:37:34.484Z,97.75
2016-09-27T01:38:34.469Z,98.03
2016-09-27T01:39:34.455Z,97.46
2016-09-27T01:40:34.807Z,97.85
2016-09-27T01:41:34.428Z,98.13
2016-09-27T01:42:34.421Z,97.66
2016-09-27T01:43:34.405Z,97.85
2016-09-27T01:44:34.396Z,97.66
2016-09-27T01:45:34.377Z,97.66
2016-09-27T01:46:34.680Z,97.75
2016-09-27T01:47:34.357Z,97.85
2016-09-27T01:48:34.340Z,97.75
2016-09-27T01:49:34.330Z,97.75
2016-09-27T01:50:34.316Z,97.85
2016-09-27T01:51:34.306Z,98.42
2016-09-27T01:52:34.303Z,98.22
2016-09-27T01:53:34.277Z,97.94
2016-09-27T01:54:34.270Z,97.75
2016-09-27T01:55:34.257Z,97.56
2016-09-27T01:56:34.242Z,97.56
2016-09-27T01:57:34.230Z,97.66
2016-09-27T01:58:34.217Z,97.66
2016-09-27T01:59:34.205Z,97.8
2016-09-27T02:00:34.191Z,98.08
2016-09-27T02:01:34.180Z,98.08
2016-09-27T02:02:34.169Z,98.18
2016-09-27T02:03:34.155Z,98.18
2016-09-27T02:04:34.145Z,98.36
2016-09-27T02:05:34.137Z,97.99
2016-09-27T02:06:34.116Z,98.36
2016-09-27T02:07:34.103Z,97.99
2016-09-27T02:08:34.124Z,98.18
2016-09-27T02:09:34.078Z,98.27
2016-09-27T02:10:34.073Z,98.27
2016-09-27T02:11:34.052Z,98.36
2016-09-27T02:12:34.091Z,98.27
2016-09-27T02:13:34.028Z,98.46
2016-09-27T02:14:34.015Z,98.08
2016-09-27T02:15:34.318Z,98.36
2016-09-27T02:16:33.993Z,98.36
2016-09-27T02:17:33.976Z,98.27
2016-09-27T02:18:33.972Z,98.36
2016-09-27T02:19:33.950Z,97.99
2016-09-27T02:20:33.940Z,98.18
2016-09-27T02:21:33.978Z,98.18
2016-09-27T02:22:33.915Z,98.36
2016-09-27T02:23:33.901Z,98.27
2016-09-27T02:24:33.885Z,98.18
2016-09-27T02:25:33.883Z,98.27
2016-09-27T02:26:33.865Z,98.46
2016-09-27T02:27:33.853Z,98.75
2016-09-27T02:28:33.838Z,98.75
2016-09-27T02:29:33.823Z,98.36
2016-09-27T02:30:34.128Z,98.56
2016-09-27T02:31:33.800Z,98.75
2016-09-27T02:32:33.788Z,99.13
2016-09-27T02:33:33.777Z,99.13
2016-09-27T02:34:33.759Z,99.65
2016-09-27T02:35:33.747Z,99.18
2016-09-27T02:36:33.736Z,99.13
2016-09-27T02:37:33.718Z,98.99
2016-09-27T02:38:33.708Z,98.7
2016-09-27T02:39:33.701Z,99.37
2016-09-27T02:40:33.682Z,99.55
2016-09-27T02:41:33.669Z,99.46
2016-09-27T02:42:33.654Z,99.46
2016-09-27T02:43:33.642Z,99.75
2016-09-27T02:44:33.630Z,99.75
2016-09-27T02:45:33.620Z,99.75
2016-09-27T02:46:33.602Z,99.08
2016-09-27T02:47:33.591Z,99.65
2016-09-27T02:48:33.581Z,99.65
2016-09-27T02:49:33.564Z,99.27
2016-09-27T02:50:33.550Z,99.65
2016-09-27T02:51:33.539Z,99.84
2016-09-27T02:52:33.528Z,99.75
2016-09-27T02:53:33.526Z,99.84
2016-09-27T02:54:33.509Z,99.18
2016-09-27T02:55:33.488Z,99.27
2016-09-27T02:56:33.473Z,99.37
2016-09-27T02:57:33.463Z,99.37
2016-09-27T02:58:33.451Z,99.65
2016-09-27T02:59:33.432Z,99.18
2016-09-27T03:00:33.419Z,99.46
2016-09-27T03:01:33.407Z,98.89
2016-09-27T03:02:33.392Z,99.18
2016-09-27T03:03:33.379Z,99.46
2016-09-27T03:04:33.376Z,99.18
2016-09-27T03:05:33.354Z,99.46
2016-09-27T03:06:33.342Z,99.46
2016-09-27T03:07:33.352Z,99.84
2016-09-27T03:08:33.319Z,99.84
2016-09-27T03:09:33.301Z,99.94
2016-09-27T03:10:33.311Z,99.46
2016-09-27T03:11:33.593Z,99.84
2016-09-27T03:12:33.269Z,99.99
2016-09-27T03:13:33.252Z,99.99
2016-09-27T03:14:33.241Z,99.94
2016-09-27T03:15:33.233Z,99.75
2016-09-27T03:16:33.211Z,99.75
2016-09-27T03:17:33.197Z,99.99
2016-09-27T03:18:33.186Z,99.99
2016-09-27T03:19:33.193Z,99.99
2016-09-27T03:20:33.161Z,99.99
2016-09-27T03:21:33.146Z,99.99
2016-09-27T03:22:33.140Z,99.99
2016-09-27T03:23:33.120Z,99.99
2016-09-27T03:24:33.107Z,99.99
2016-09-27T03:25:33.407Z,99.99
2016-09-27T03:26:33.089Z,99.99
2016-09-27T03:27:33.069Z,99.99
2016-09-27T03:28:33.371Z,99.99
2016-09-27T03:29:33.044Z,99.99
2016-09-27T03:30:33.344Z,99.99
2016-09-27T03:31:33.332Z,99.99
2016-09-27T03:32:33.002Z,99.99
2016-09-27T03:33:32.991Z,99.99
2016-09-27T03:34:33.308Z,99.99
2016-09-27T03:35:33.279Z,99.99
2016-09-27T03:36:32.955Z,99.99
2016-09-27T03:37:32.944Z,99.99
2016-09-27T03:38:32.928Z,99.99
2016-09-27T03:39:32.918Z,99.99
2016-09-27T03:40:32.904Z,99.99
2016-09-27T03:41:32.887Z,99.99
2016-09-27T03:42:32.877Z,99.99
2016-09-27T03:43:32.864Z,99.99
2016-09-27T03:44:32.852Z,99.99
2016-09-27T03:45:32.837Z,99.99
2016-09-27T03:46:32.828Z,99.99
2016-09-27T03:47:32.814Z,99.99
2016-09-27T03:48:32.797Z,99.99
2016-09-27T03:49:32.786Z,99.99
2016-09-27T03:50:32.775Z,99.99
2016-09-27T03:51:32.761Z,99.99
2016-09-27T03:52:32.750Z,99.99
2016-09-27T03:53:32.738Z,99.99
2016-09-27T03:54:32.718Z,99.99
2016-09-27T03:55:33.021Z,99.99
2016-09-27T03:56:32.693Z,99.99
2016-09-27T03:57:32.699Z,99.99
2016-09-27T03:58:32.669Z,99.99
2016-09-27T03:59:32.969Z,99.99
2016-09-27T04:00:32.644Z,99.99
2016-09-27T04:01:32.631Z,99.99
2016-09-27T04:02:32.941Z,99.99
2016-09-27T04:03:32.608Z,99.99
2016-09-27T04:04:32.595Z,99.99
2016-09-27T04:05:32.577Z,99.99
2016-09-27T04:06:32.565Z,99.99
2016-09-27T04:07:32.554Z,99.99
2016-09-27T04:08:32.537Z,99.99
2016-09-27T04:09:32.840Z,99.99
2016-09-27T04:10:32.518Z,99.99
2016-09-27T04:11:32.500Z,99.99
2016-09-27T04:12:32.487Z,99.99
2016-09-27T04:13:32.479Z,99.99
2016-09-27T04:14:32.459Z,99.99
2016-09-27T04:15:32.450Z,99.99
2016-09-27T04:16:32.437Z,99.99
2016-09-27T04:17:32.472Z,99.99
2016-09-27T04:18:32.413Z,99.99
2016-09-27T04:19:32.395Z,99.99
2016-09-27T04:20:32.381Z,99.99
2016-09-27T04:21:32.371Z,99.99
2016-09-27T04:22:32.355Z,99.99
2016-09-27T04:23:32.345Z,99.99
2016-09-27T04:24:32.329Z,99.99
2016-09-27T04:25:32.313Z,99.99
2016-09-27T04:26:32.303Z,99.99
2016-09-27T04:27:32.291Z,99.99
2016-09-27T04:28:32.276Z,99.99
2016-09-27T04:29:32.263Z,99.99
2016-09-27T04:30:32.249Z,99.99
2016-09-27T04:31:32.241Z,99.99
2016-09-27T04:32:32.535Z,99.99
2016-09-27T04:33:32.213Z,99.99
2016-09-27T04:34:32.510Z,99.99
2016-09-27T04:35:32.185Z,99.99
2016-09-27T04:36:32.169Z,99.99
2016-09-27T04:37:32.155Z,99.99
2016-09-27T04:38:32.144Z,99.99
2016-09-27T04:39:32.130Z,99.99
2016-09-27T04:40:32.115Z,99.99
2016-09-27T04:41:32.102Z,99.99
2016-09-27T04:42:32.092Z,99.99
2016-09-27T04:43:32.077Z,99.99
2016-09-27T04:44:32.071Z,99.99
2016-09-27T04:45:32.046Z,99.99
2016-09-27T04:46:32.240Z,99.99
2016-09-27T04:47:32.025Z,99.99
2016-09-27T04:48:32.320Z,99.99
2016-09-27T04:49:31.996Z,99.99
2016-09-27T04:50:31.981Z,99.99
2016-09-27T04:51:31.965Z,99.99
2016-09-27T04:52:31.955Z,99.99
2016-09-27T04:53:31.950Z,99.99
2016-09-27T04:54:31.925Z,99.99
2016-09-27T04:55:31.917Z,99.99
2016-09-27T04:56:31.913Z,99.99
2016-09-27T04:57:31.887Z,99.99
2016-09-27T04:58:32.187Z,99.99
2016-09-27T04:59:31.857Z,99.99
2016-09-27T05:00:31.847Z,99.99
2016-09-27T05:01:31.836Z,99.99
2016-09-27T05:02:31.815Z,99.99
2016-09-27T05:03:31.805Z,99.99
2016-09-27T05:04:31.793Z,99.99
2016-09-27T05:05:31.778Z,99.99
2016-09-27T05:06:31.764Z,99.99
2016-09-27T05:07:31.750Z,99.99
2016-09-27T05:08:31.737Z,99.99
2016-09-27T05:09:32.042Z,99.99
2016-09-27T05:10:31.710Z,99.99
2016-09-27T05:11:32.010Z,99.99
2016-09-27T05:12:31.683Z,99.99
2016-09-27T05:13:31.671Z,99.99
2016-09-27T05:14:31.655Z,99.99
2016-09-27T05:15:31.649Z,99.99
2016-09-27T05:16:31.627Z,99.99
2016-09-27T05:17:31.623Z,99.99
2016-09-27T05:18:31.919Z,99.99
2016-09-27T05:19:31.597Z,99.99
2016-09-27T05:20:31.576Z,99.99
2016-09-27T05:21:31.559Z,99.99
2016-09-27T05:22:31.547Z,99.99
2016-09-27T05:23:31.532Z,99.99
2016-09-27T05:24:31.523Z,99.99
2016-09-27T05:25:31.504Z,99.99
2016-09-27T05:26:31.495Z,99.99
2016-09-27T05:27:31.481Z,99.99
2016-09-27T05:28:31.468Z,99.99
2016-09-27T05:29:31.455Z,99.99
2016-09-27T05:30:31.438Z,99.99
2016-09-27T05:31:31.429Z,99.99
2016-09-27T05:32:31.411Z,99.99
2016-09-27T05:33:31.399Z,99.99
2016-09-27T05:34:31.383Z,99.99
2016-09-27T05:35:31.369Z,99.99
2016-09-27T05:36:31.668Z,99.99
2016-09-27T05:37:31.340Z,99.99
2016-09-27T05:38:31.332Z,99.99
2016-09-27T05:39:31.315Z,99.99
2016-09-27T05:40:31.301Z,99.99
2016-09-27T05:41:31.290Z,99.99
2016-09-27T05:42:31.284Z,99.99
2016-09-27T05:43:31.259Z,99.99
2016-09-27T05:44:31.247Z,99.99
2016-09-27T05:45:31.232Z,99.99
2016-09-27T05:46:31.216Z,99.99
2016-09-27T05:47:31.207Z,99.99
2016-09-27T05:48:31.194Z,99.99
2016-09-27T05:49:31.178Z,99.99
2016-09-27T05:50:31.480Z,99.99
2016-09-27T05:51:31.150Z,99.99
2016-09-27T05:52:31.454Z,99.99
2016-09-27T05:53:31.123Z,99.99
2016-09-27T05:54:31.111Z,99.99
2016-09-27T05:55:31.098Z,99.99
2016-09-27T05:56:31.094Z,99.99
2016-09-27T05:57:31.383Z,99.99
2016-09-27T05:58:31.056Z,99.99
2016-09-27T05:59:31.055Z,99.99
2016-09-27T06:00:31.027Z,99.99
2016-09-27T06:01:31.326Z,99.99
2016-09-27T06:02:30.999Z,99.99
2016-09-27T06:03:30.992Z,99.99
2016-09-27T06:04:30.981Z,99.99
2016-09-27T06:05:30.971Z,99.99
2016-09-27T06:06:30.966Z,99.99
2016-09-27T06:07:30.932Z,99.99
2016-09-27T06:08:30.933Z,99.99
2016-09-27T06:09:30.905Z,99.99
2016-09-27T06:10:30.889Z,99.99
2016-09-27T06:11:30.877Z,99.99
2016-09-27T06:12:30.865Z,99.99
2016-09-27T06:13:30.851Z,99.99
2016-09-27T06:14:30.853Z,99.99
2016-09-27T06:15:30.822Z,99.99
2016-09-27T06:16:30.806Z,99.99
2016-09-27T06:17:30.795Z,99.99
2016-09-27T06:18:31.096Z,99.99
2016-09-27T06:19:31.089Z,99.99
2016-09-27T06:20:30.754Z,99.99
2016-09-27T06:21:30.741Z,99.99
2016-09-27T06:22:31.041Z,99.99
2016-09-27T06:23:30.919Z,99.99
2016-09-27T06:24:30.713Z,99.99
2016-09-27T06:25:30.703Z,99.99
2016-09-27T06:26:30.999Z,99.99
2016-09-27T06:27:30.663Z,99.99
2016-09-27T06:28:30.648Z,99.99
2016-09-27T06:29:30.633Z,99.99
2016-09-27T06:30:30.940Z,99.99
2016-09-27T06:31:30.605Z,99.99
2016-09-27T06:32:30.906Z,99.99
2016-09-27T06:33:30.597Z,99.99
2016-09-27T06:34:30.885Z,99.99
2016-09-27T06:35:30.550Z,99.99
2016-09-27T06:36:30.540Z,99.99
2016-09-27T06:37:30.526Z,99.99
2016-09-27T06:38:30.511Z,99.99
2016-09-27T06:39:30.497Z,99.99
2016-09-27T06:40:30.483Z,99.99
2016-09-27T06:41:30.472Z,99.99
2016-09-27T06:42:30.466Z,99.99
2016-09-27T06:43:30.450Z,99.99
2016-09-27T06:44:30.431Z,99.99
2016-09-27T06:45:30.422Z,99.99
2016-09-27T06:46:30.611Z,99.99
2016-09-27T06:47:30.398Z,99.99
2016-09-27T06:48:30.390Z,99.99
2016-09-27T06:49:30.370Z,99.99
2016-09-27T06:50:30.670Z,99.99
2016-09-27T06:51:30.343Z,99.99
2016-09-27T06:52:30.659Z,99.99
2016-09-27T06:53:30.314Z,99.99
2016-09-27T06:54:30.314Z,99.99
2016-09-27T06:55:30.292Z,99.99
2016-09-27T06:56:30.278Z,99.99
2016-09-27T06:57:30.575Z,99.99
2016-09-27T06:58:30.253Z,99.99
2016-09-27T06:59:30.588Z,99.99
2016-09-27T07:00:30.226Z,99.99
2016-09-27T07:01:30.213Z,99.99
2016-09-27T07:02:30.201Z,99.99
2016-09-27T07:03:30.187Z,99.99
2016-09-27T07:04:30.490Z,99.99
2016-09-27T07:05:30.161Z,99.99
2016-09-27T07:06:30.148Z,99.99
2016-09-27T07:07:30.135Z,99.99
2016-09-27T07:08:30.128Z,99.99
2016-09-27T07:09:30.107Z,99.99
2016-09-27T07:10:30.101Z,99.99
2016-09-27T07:11:30.088Z,99.99
2016-09-27T07:12:30.074Z,99.99
2016-09-27T07:13:30.070Z,99.99
2016-09-27T07:14:30.062Z,99.99
2016-09-27T07:15:30.038Z,99.99
2016-09-27T07:16:30.023Z,99.99
2016-09-27T07:17:30.011Z,99.99
2016-09-27T07:18:30.000Z,99.99
2016-09-27T07:19:29.989Z,99.99
2016-09-27T07:20:29.975Z,99.99
2016-09-27T07:21:29.963Z,99.99
2016-09-27T07:22:29.960Z,99.99
2016-09-27T07:23:29.937Z,99.99
2016-09-27T07:24:29.925Z,99.99
2016-09-27T07:25:29.915Z,99.99
2016-09-27T07:26:29.925Z,99.99
2016-09-27T07:27:29.887Z,99.99
2016-09-27T07:28:29.884Z,99.99
2016-09-27T07:29:29.863Z,99.99
2016-09-27T07:30:29.882Z,99.99
2016-09-27T07:31:29.841Z,99.99
2016-09-27T07:32:29.829Z,99.99
2016-09-27T07:33:29.816Z,99.99
2016-09-27T07:34:29.813Z,99.99
2016-09-27T07:35:29.812Z,99.99
2016-09-27T07:36:29.781Z,99.99
2016-09-27T07:37:30.084Z,99.99
2016-09-27T07:38:29.761Z,99.99
2016-09-27T07:39:29.744Z,99.99
2016-09-27T07:40:29.731Z,99.99
2016-09-27T07:41:29.722Z,99.99
2016-09-27T07:42:29.707Z,99.99
2016-09-27T07:43:29.711Z,99.99
2016-09-27T07:44:29.687Z,99.99
2016-09-27T07:45:29.673Z,99.99
2016-09-27T07:46:29.666Z,99.8
2016-09-27T07:47:29.660Z,99.8
2016-09-27T07:48:29.639Z,99.8
2016-09-27T07:49:29.634Z,99.99
2016-09-27T07:50:29.628Z,99.62
2016-09-27T07:51:29.607Z,99.99
2016-09-27T07:52:29.608Z,99.33
2016-09-27T07:53:29.578Z,99.48
2016-09-27T07:54:29.576Z,99.38
2016-09-27T07:55:29.562Z,99.28
2016-09-27T07:56:29.546Z,98.9
2016-09-27T07:57:29.544Z,98.42
2016-09-27T07:58:29.524Z,98.23
2016-09-27T07:59:29.514Z,98.52
2016-09-27T08:00:29.500Z,98.33
2016-09-27T08:01:29.489Z,98.33
2016-09-27T08:02:29.480Z,98.23
2016-09-27T08:03:29.468Z,98.23
2016-09-27T08:04:29.457Z,98.8
2016-09-27T08:05:29.457Z,97.9
2016-09-27T08:06:29.435Z,97.9
2016-09-27T08:07:29.423Z,97.61
2016-09-27T08:08:29.412Z,96.75
2016-09-27T08:09:29.400Z,96.75
2016-09-27T08:10:29.392Z,97.23
2016-09-27T08:11:29.383Z,95.7
2016-09-27T08:12:29.367Z,96.37
2016-09-27T08:13:29.358Z,95.51
2016-09-27T08:14:29.346Z,95.17
2016-09-27T08:15:29.335Z,95.07
2016-09-27T08:16:29.325Z,94.6
2016-09-27T08:17:29.313Z,94.79
2016-09-27T08:18:29.304Z,93.69
2016-09-27T08:19:29.296Z,92.73
2016-09-27T08:20:29.287Z,92.92
2016-09-27T08:21:29.274Z,92.06
2016-09-27T08:22:29.259Z,91.87
2016-09-27T08:23:29.255Z,92.25
2016-09-27T08:24:29.245Z,92.54
2016-09-27T08:25:29.228Z,91.87
2016-09-27T08:26:29.255Z,91.53
2016-09-27T08:27:29.210Z,91.53
2016-09-27T08:28:29.202Z,92.58
2016-09-27T08:29:29.204Z,92.3
2016-09-27T08:30:29.493Z,92.11
2016-09-27T08:31:29.168Z,92.3
2016-09-27T08:32:29.161Z,92.21
2016-09-27T08:33:29.147Z,92.21
2016-09-27T08:34:29.163Z,92.4
2016-09-27T08:35:29.439Z,92.01
2016-09-27T08:36:29.430Z,91.53
2016-09-27T08:37:29.115Z,91.63
2016-09-27T08:38:29.434Z,91.34
2016-09-27T08:39:29.086Z,91.72
2016-09-27T08:40:29.407Z,91.53
2016-09-27T08:41:29.072Z,91.63
2016-09-27T08:42:29.056Z,91.53
2016-09-27T08:43:29.362Z,91.72
2016-09-27T08:44:29.037Z,91.63
2016-09-27T08:45:29.028Z,91.53
2016-09-27T08:46:29.219Z,91.77
2016-09-27T08:47:29.008Z,91.58
2016-09-27T08:48:28.999Z,91.58
2016-09-27T08:49:28.989Z,91.1
2016-09-27T08:50:28.978Z,91.67
2016-09-27T08:51:29.305Z,90.53
2016-09-27T08:52:28.959Z,90.62
2016-09-27T08:53:28.949Z,90.72
2016-09-27T08:54:28.947Z,90.14
2016-09-27T08:55:28.932Z,89.86
2016-09-27T08:56:28.921Z,89.37
2016-09-27T08:57:28.916Z,89.28
2016-09-27T08:58:28.899Z,89.42
2016-09-27T08:59:28.892Z,89.32
2016-09-27T09:00:28.883Z,89.04
2016-09-27T09:01:28.876Z,89.13
2016-09-27T09:02:28.862Z,88.65
2016-09-27T09:03:28.859Z,88.75
2016-09-27T09:04:28.846Z,88.27
2016-09-27T09:05:28.837Z,87.55
2016-09-27T09:06:29.139Z,87.21
2016-09-27T09:07:28.823Z,87.84
2016-09-27T09:08:29.120Z,87.64
2016-09-27T09:09:28.800Z,88.22
2016-09-27T09:10:28.790Z,87.84
2016-09-27T09:11:29.094Z,88.31
2016-09-27T09:12:28.774Z,87.16
2016-09-27T09:13:28.765Z,87.35
2016-09-27T09:14:29.062Z,88.22
2016-09-27T09:15:29.070Z,87.35
2016-09-27T09:16:28.739Z,86.78
2016-09-27T09:17:28.730Z,87.35
2016-09-27T09:18:29.036Z,87.16
2016-09-27T09:19:29.023Z,86.15
2016-09-27T09:20:28.702Z,85.77
2016-09-27T09:21:28.691Z,86.21
2016-09-27T09:22:28.686Z,85.86
2016-09-27T09:23:28.677Z,86.34
2016-09-27T09:24:28.673Z,86.34
2016-09-27T09:25:28.968Z,85.96
2016-09-27T09:26:28.644Z,85.86
2016-09-27T09:27:28.953Z,85.48
2016-09-27T09:28:28.940Z,85.1
2016-09-27T09:29:28.616Z,84.71
2016-09-27T09:30:28.609Z,84.52
2016-09-27T09:31:28.652Z,84.91
2016-09-27T09:32:28.590Z,84.42
2016-09-27T09:33:28.581Z,83.75
2016-09-27T09:34:28.572Z,84.33
2016-09-27T09:35:28.566Z,84.42
2016-09-27T09:36:28.553Z,84.04
2016-09-27T09:37:28.549Z,85.1
2016-09-27T09:38:28.542Z,83.98
2016-09-27T09:39:28.530Z,84.47
2016-09-27T09:40:28.521Z,84.08
2016-09-27T09:41:28.612Z,83.7
2016-09-27T09:42:28.505Z,82.64
2016-09-27T09:43:28.496Z,82.45
2016-09-27T09:44:28.486Z,81.82
2016-09-27T09:45:28.479Z,81.72
2016-09-27T09:46:28.788Z,82.3
2016-09-27T09:47:28.463Z,82.4
2016-09-27T09:48:28.451Z,82.1
2016-09-27T09:49:28.445Z,81.34
2016-09-27T09:50:28.433Z,81.63
2016-09-27T09:51:28.429Z,81.34
2016-09-27T09:52:28.420Z,82.01
2016-09-27T09:53:28.412Z,82.01
2016-09-27T09:54:28.718Z,81.53
2016-09-27T09:55:28.396Z,81.53
2016-09-27T09:56:28.389Z,81.82
2016-09-27T09:57:28.382Z,81.43
2016-09-27T09:58:28.368Z,81.43
2016-09-27T09:59:28.680Z,80.96
2016-09-27T10:00:28.359Z,80.42
2016-09-27T10:01:28.402Z,79.65
2016-09-27T10:02:28.338Z,79.84
2016-09-27T10:03:28.645Z,79.75
2016-09-27T10:04:28.322Z,79.55
2016-09-27T10:05:28.321Z,79.75
2016-09-27T10:06:28.306Z,79.65
2016-09-27T10:07:28.299Z,79.36
2016-09-27T10:08:28.289Z,78.21
2016-09-27T10:09:28.279Z,78.98
2016-09-27T10:10:28.270Z,78.98
2016-09-27T10:11:28.593Z,78.98
2016-09-27T10:12:28.258Z,79.46
2016-09-27T10:13:28.568Z,79.55
2016-09-27T10:14:28.243Z,79.07
2016-09-27T10:15:28.234Z,79.36
2016-09-27T10:16:28.224Z,79.65
2016-09-27T10:17:28.217Z,79.27
2016-09-27T10:18:28.212Z,78.98
2016-09-27T10:19:28.518Z,78.5
2016-09-27T10:20:28.195Z,77.25
2016-09-27T10:21:28.187Z,77.19
2016-09-27T10:22:28.183Z,76.9
2016-09-27T10:23:28.172Z,77.38
2016-09-27T10:24:28.167Z,76.81
2016-09-27T10:25:28.157Z,77.58
2016-09-27T10:26:28.147Z,77.48
2016-09-27T10:27:28.141Z,77
2016-09-27T10:28:28.136Z,77.19
2016-09-27T10:29:28.125Z,77.09
2016-09-27T10:30:28.123Z,77.29
2016-09-27T10:31:28.113Z,77
2016-09-27T10:32:28.103Z,76.32
2016-09-27T10:33:28.413Z,76.04
2016-09-27T10:34:28.089Z,76.42
2016-09-27T10:35:28.082Z,75.46
2016-09-27T10:36:28.072Z,75.84
2016-09-27T10:37:28.379Z,75.94
2016-09-27T10:38:28.066Z,75.46
2016-09-27T10:39:28.074Z,74.6
2016-09-27T10:40:28.054Z,74.6
2016-09-27T10:41:28.367Z,74.4
2016-09-27T10:42:28.037Z,75.07
2016-09-27T10:43:28.029Z,75.46
2016-09-27T10:44:28.022Z,74.82
2016-09-27T10:45:28.011Z,73.96
2016-09-27T10:46:28.217Z,73.96
2016-09-27T10:47:27.997Z,73.86
2016-09-27T10:48:27.993Z,74.44
2016-09-27T10:49:28.300Z,74.25
2016-09-27T10:50:28.310Z,74.09
2016-09-27T10:51:27.969Z,71.88
2016-09-27T10:52:28.282Z,71.2
2016-09-27T10:53:27.961Z,71.4
2016-09-27T10:54:27.953Z,69.95
2016-09-27T10:55:27.943Z,68.64
2016-09-27T10:56:27.943Z,68.51
2016-09-27T10:57:28.253Z,69.41
2016-09-27T10:58:27.926Z,69.6
2016-09-27T10:59:27.918Z,69.7
2016-09-27T11:00:27.907Z,69.73
2016-09-27T11:01:27.908Z,68.1
2016-09-27T11:02:27.898Z,67.52
2016-09-27T11:03:27.889Z,68
2016-09-27T11:04:27.887Z,67.03
2016-09-27T11:05:27.878Z,67.74
2016-09-27T11:06:27.880Z,68.58
2016-09-27T11:07:27.865Z,66.49
2016-09-27T11:08:28.214Z,66.78
2016-09-27T11:09:27.851Z,65.53
2016-09-27T11:10:27.849Z,65.72
2016-09-27T11:11:27.839Z,64.86
2016-09-27T11:12:27.833Z,62.25
2016-09-27T11:13:27.826Z,63.31
2016-09-27T11:14:27.823Z,64.28
2016-09-27T11:15:27.816Z,63.31
2016-09-27T11:16:27.809Z,64.18
2016-09-27T11:17:27.805Z,63.89
2016-09-27T11:18:27.803Z,64.18
2016-09-27T11:19:27.793Z,62.35
2016-09-27T11:20:27.788Z,62.15
2016-09-27T11:21:27.789Z,61.96
2016-09-27T11:22:27.774Z,63.21
2016-09-27T11:23:27.769Z,62.35
2016-09-27T11:24:27.772Z,63.6
2016-09-27T11:25:27.759Z,63.54
2016-09-27T11:26:27.755Z,62.86
2016-09-27T11:27:27.753Z,60.68
2016-09-27T11:28:27.746Z,59.8
2016-09-27T11:29:27.741Z,59.35
2016-09-27T11:30:27.732Z,58.68
2016-09-27T11:31:27.732Z,57.23
2016-09-27T11:32:28.042Z,58.39
2016-09-27T11:33:27.725Z,58.97
2016-09-27T11:34:27.729Z,59.28
2016-09-27T11:35:27.715Z,59.48
2016-09-27T11:36:27.709Z,56.87
2016-09-27T11:37:27.705Z,56.58
2016-09-27T11:38:27.701Z,57.16
2016-09-27T11:39:27.702Z,57.45
2016-09-27T11:40:28.006Z,59.19
2016-09-27T11:41:28.012Z,56.29
2016-09-27T11:42:27.999Z,56.1
2016-09-27T11:43:27.688Z,55.81
2016-09-27T11:45:27.677Z,55.07
2016-09-27T11:46:27.674Z,55.55
2016-09-27T11:47:27.668Z,55.29
2016-09-27T11:48:27.677Z,53.83
2016-09-27T11:49:27.664Z,53.16
2016-09-27T11:50:27.976Z,52
2016-09-27T11:51:27.653Z,53.67
2016-09-27T11:52:27.654Z,51.28
2016-09-27T11:53:27.650Z,50.31
2016-09-27T11:54:27.654Z,51.1
2016-09-27T11:55:27.668Z,51.04
2016-09-27T11:56:27.643Z,49.51
2016-09-27T11:57:27.644Z,48.76
2016-09-27T11:58:27.642Z,47.11
2016-09-27T11:59:27.655Z,46.84
2016-09-27T12:00:27.642Z,45.58
2016-09-27T12:01:27.641Z,46.86
2016-09-27T12:02:27.643Z,44.95
2016-09-27T12:03:27.960Z,43.49
2016-09-27T12:04:27.642Z,43.12
2016-09-27T12:05:27.643Z,41.1
2016-09-27T12:06:27.643Z,42.08
2016-09-27T12:07:27.645Z,42
2016-09-27T12:08:27.645Z,39.88
2016-09-27T12:09:27.645Z,40.27
2016-09-27T12:10:27.651Z,40.58
2016-09-27T12:11:27.652Z,37.85
2016-09-27T12:12:27.648Z,38.17
2016-09-27T12:13:27.656Z,38.95
2016-09-27T12:14:27.653Z,37.89
2016-09-27T12:15:27.657Z,35.86
2016-09-27T12:16:27.661Z,34.5
2016-09-27T12:17:27.657Z,37.89
2016-09-27T12:18:27.663Z,36.06
2016-09-27T12:19:27.977Z,33.06
2016-09-27T12:20:27.664Z,33.83
2016-09-27T12:21:27.668Z,33.25
2016-09-27T12:22:27.682Z,32.39
2016-09-27T12:23:27.682Z,31.04
2016-09-27T12:24:27.680Z,31.72
2016-09-27T12:25:28.008Z,31.35
2016-09-27T12:26:27.689Z,31.15
2016-09-27T12:27:27.688Z,31.23
2016-09-27T12:28:27.712Z,31.33
2016-09-27T12:29:27.694Z,31.41
2016-09-27T12:30:27.708Z,30.35
2016-09-27T12:31:27.699Z,30.65
2016-09-27T12:32:27.754Z,31.35
2016-09-27T12:33:27.703Z,30.57
2016-09-27T12:34:28.023Z,30.38
2016-09-27T12:35:27.705Z,29.8
2016-09-27T12:36:27.711Z,31.35
2016-09-27T12:37:27.717Z,31.04
2016-09-27T12:38:27.712Z,29.2
2016-09-27T12:39:27.720Z,30.27
2016-09-27T12:40:27.728Z,28.14
2016-09-27T12:41:27.729Z,28.63
2016-09-27T12:42:27.736Z,27.94
2016-09-27T12:43:27.731Z,28.43
2016-09-27T12:44:27.735Z,28.23
2016-09-27T12:45:27.746Z,27.94
2016-09-27T12:46:27.940Z,27.45
2016-09-27T12:47:27.741Z,28.03
2016-09-27T12:48:27.741Z,28.43
2016-09-27T12:49:27.748Z,26.77
2016-09-27T12:50:27.750Z,28.92
2016-09-27T12:51:27.749Z,27.06
2016-09-27T12:52:27.813Z,27.65
2016-09-27T12:53:27.754Z,27.27
2016-09-27T12:54:27.760Z,26.59
2016-09-27T12:55:27.792Z,26.2